Time;durP1;ratioP1;P1;durP2;ratioP2;P2;SDS_P1;SDS_P2;PMS_P1;PMS_P2;Temp;Humidity;BMP_temperature;BMP_pressure;BME280_temperature;BME280_humidity;BME280_pressure;Samples;Min_cycle;Max_cycle;Signal;HPM_P1;HPM_P2
2021/09/26 00:00:16;;;;;;;7.45;4.47;;;16.40;99.90;;;;;;4972820;28;20023;-61
2021/09/26 00:02:42;;;;;;;7.32;4.18;;;16.50;99.90;;;;;;4967128;28;20045;-57
2021/09/26 00:05:09;;;;;;;6.03;4.30;;;16.40;99.90;;;;;;4964959;28;20022;-59
2021/09/26 00:07:36;;;;;;;6.30;4.07;;;16.40;99.90;;;;;;4968932;28;20378;-58
2021/09/26 00:10:02;;;;;;;6.07;4.28;;;16.50;99.90;;;;;;4973315;28;20049;-58
2021/09/26 00:12:28;;;;;;;9.45;4.68;;;16.50;99.90;;;;;;4970827;28;20126;-57
2021/09/26 00:14:53;;;;;;;6.93;4.50;;;16.50;99.90;;;;;;4971241;28;20117;-58
2021/09/26 00:17:19;;;;;;;9.38;4.47;;;16.50;99.90;;;;;;4972011;28;20042;-56
2021/09/26 00:19:45;;;;;;;7.45;4.55;;;16.50;99.90;;;;;;4972452;28;20417;-60
2021/09/26 00:22:10;;;;;;;7.25;4.72;;;16.50;99.90;;;;;;4972887;28;20672;-57
2021/09/26 00:24:36;;;;;;;7.45;4.18;;;16.60;99.90;;;;;;4971828;28;20027;-59
2021/09/26 00:27:02;;;;;;;5.57;4.15;;;16.60;99.90;;;;;;4971183;28;20026;-57
2021/09/26 00:29:27;;;;;;;7.40;4.03;;;16.70;99.90;;;;;;4970582;28;20035;-55
2021/09/26 00:31:53;;;;;;;5.72;4.10;;;16.70;99.90;;;;;;4966545;28;20026;-59
2021/09/26 00:34:18;;;;;;;6.97;3.70;;;16.70;99.90;;;;;;4969813;28;20109;-57
2021/09/26 00:36:44;;;;;;;10.10;4.40;;;16.70;99.90;;;;;;4968420;28;20045;-57
2021/09/26 00:39:10;;;;;;;6.30;3.80;;;16.70;99.90;;;;;;4972301;28;20085;-57
2021/09/26 00:41:35;;;;;;;8.18;4.30;;;16.70;99.90;;;;;;4971299;28;20479;-58
2021/09/26 00:44:01;;;;;;;5.25;3.78;;;16.70;99.90;;;;;;4971176;28;20031;-59
2021/09/26 00:46:26;;;;;;;6.43;3.95;;;16.60;99.90;;;;;;4972826;28;20498;-58
2021/09/26 00:48:52;;;;;;;6.00;4.60;;;16.50;99.90;;;;;;4970501;28;20105;-59
2021/09/26 00:51:18;;;;;;;7.70;4.53;;;16.50;99.90;;;;;;4969193;28;20045;-53
2021/09/26 00:53:44;;;;;;;8.43;4.47;;;16.50;99.90;;;;;;4968707;28;20027;-58
2021/09/26 00:56:11;;;;;;;6.90;4.53;;;16.50;99.90;;;;;;4969860;28;20083;-59
2021/09/26 00:58:38;;;;;;;6.95;4.90;;;16.40;99.90;;;;;;4970556;28;20074;-58
2021/09/26 01:01:04;;;;;;;9.10;4.93;;;16.40;99.90;;;;;;4967028;28;20555;-59
2021/09/26 01:03:29;;;;;;;5.63;4.60;;;16.50;99.90;;;;;;5010692;28;20057;-57
2021/09/26 01:06:15;;;;;;;7.63;4.55;;;16.50;99.90;;;;;;5010864;28;20108;-55
2021/09/26 01:08:45;;;;;;;6.03;4.00;;;16.50;99.90;;;;;;5007079;28;20071;-57
2021/09/26 01:11:21;;;;;;;11.38;5.10;;;16.50;99.90;;;;;;5008853;28;20028;-59
2021/09/26 01:14:11;;;;;;;7.50;5.10;;;16.50;99.90;;;;;;5007846;28;20037;-60
2021/09/26 01:16:45;;;;;;;6.57;4.50;;;16.50;99.90;;;;;;5007268;28;20026;-59
2021/09/26 01:19:32;;;;;;;6.80;4.63;;;16.50;99.90;;;;;;5001923;28;20378;-56
2021/09/26 01:22:06;;;;;;;5.82;4.68;;;16.50;99.90;;;;;;5001484;28;20044;-57
2021/09/26 01:24:31;;;;;;;;;;;16.60;99.90;;;;;;5007500;28;20420;-58
2021/09/26 01:27:27;;;;;;;6.70;4.35;;;16.70;99.90;;;;;;5010860;28;19909;-53
2021/09/26 01:30:31;;;;;;;5.55;4.50;;;16.60;99.90;;;;;;5009700;28;20022;-58
2021/09/26 01:33:07;;;;;;;8.65;4.65;;;16.60;99.90;;;;;;5009881;28;20329;-54
2021/09/26 01:35:38;;;;;;;6.93;4.50;;;16.60;99.90;;;;;;5008875;28;20032;-58
2021/09/26 01:38:09;;;;;;;9.45;4.55;;;16.50;99.90;;;;;;5010242;28;20076;-59
2021/09/26 01:40:52;;;;;;;7.75;4.07;;;16.50;99.90;;;;;;5010299;28;20110;-59
2021/09/26 01:43:25;;;;;;;7.20;4.40;;;16.40;99.90;;;;;;5006198;28;20026;-53
2021/09/26 01:45:54;;;;;;;7.15;5.25;;;16.50;99.90;;;;;;5009642;28;20109;-60
2021/09/26 01:48:33;;;;;;;6.18;4.40;;;16.40;99.90;;;;;;5010262;28;20026;-58
2021/09/26 01:51:00;;;;;;;5.90;4.45;;;16.30;99.90;;;;;;5009400;28;21272;-56
2021/09/26 01:53:28;;;;;;;8.48;4.47;;;16.30;99.90;;;;;;5001178;28;20022;-58
2021/09/26 01:55:54;;;;;;;8.15;4.55;;;16.20;99.90;;;;;;5005899;28;20030;-59
2021/09/26 01:58:20;;;;;;;5.75;4.70;;;16.20;99.90;;;;;;5009707;28;20022;-58
2021/09/26 02:00:47;;;;;;;10.52;5.35;;;16.30;99.90;;;;;;4995814;28;20040;-59
2021/09/26 02:03:14;;;;;;;7.30;5.07;;;16.20;99.90;;;;;;4998587;28;20084;-57
2021/09/26 02:05:42;;;;;;;6.20;5.05;;;16.20;99.90;;;;;;4999480;28;20054;-59
2021/09/26 02:08:08;;;;;;;11.40;5.28;;;16.20;99.90;;;;;;5005891;28;20491;-56
2021/09/26 02:10:36;;;;;;;8.20;4.50;;;16.20;99.90;;;;;;5009260;28;20021;-55
2021/09/26 02:13:04;;;;;;;9.73;5.47;;;16.20;99.90;;;;;;5007397;28;20489;-58
2021/09/26 02:15:31;;;;;;;11.02;6.32;;;16.20;99.90;;;;;;5006570;28;20041;-59
2021/09/26 02:17:59;;;;;;;14.30;5.28;;;16.20;99.90;;;;;;5000301;28;20588;-58
2021/09/26 02:20:25;;;;;;;10.18;5.18;;;16.10;99.90;;;;;;5001486;28;20041;-59
2021/09/26 02:22:53;;;;;;;7.40;5.40;;;16.10;99.90;;;;;;5009971;28;20029;-58
2021/09/26 02:25:20;;;;;;;6.35;5.07;;;16.10;99.90;;;;;;5002179;28;20664;-59
2021/09/26 02:27:46;;;;;;;10.32;5.05;;;16.20;99.90;;;;;;5002413;28;20030;-60
2021/09/26 02:30:12;;;;;;;6.68;4.88;;;16.20;99.90;;;;;;5009242;28;20054;-58
2021/09/26 02:32:38;;;;;;;7.85;4.80;;;16.20;99.90;;;;;;5009134;28;20058;-61
2021/09/26 02:35:07;;;;;;;8.90;5.10;;;16.20;99.90;;;;;;5006913;28;20117;-60
2021/09/26 02:37:32;;;;;;;8.35;5.30;;;16.20;99.90;;;;;;5008025;28;20049;-60
2021/09/26 02:39:59;;;;;;;7.80;5.25;;;16.20;99.90;;;;;;5008722;28;20030;-61
2021/09/26 02:42:31;;;;;;;8.55;5.07;;;16.20;99.90;;;;;;5009101;28;20021;-59
2021/09/26 02:44:57;;;;;;;7.55;5.45;;;16.20;99.90;;;;;;5008974;28;20030;-56
2021/09/26 02:47:26;;;;;;;8.82;5.43;;;16.30;99.90;;;;;;5001105;28;20057;-58
2021/09/26 02:49:52;;;;;;;6.50;5.13;;;16.30;99.90;;;;;;5005644;28;20021;-56
2021/09/26 02:52:20;;;;;;;8.48;4.88;;;16.30;99.90;;;;;;5008055;28;20071;-58
2021/09/26 02:54:46;;;;;;;8.60;4.90;;;16.30;99.90;;;;;;5008424;28;20036;-58
2021/09/26 02:57:13;;;;;;;8.25;4.47;;;16.20;99.90;;;;;;5009250;28;20114;-60
2021/09/26 02:59:39;;;;;;;9.45;5.05;;;16.20;99.90;;;;;;5005883;28;20088;-58
2021/09/26 03:02:06;;;;;;;6.35;5.32;;;16.20;99.90;;;;;;4992899;28;20515;-60
2021/09/26 03:04:44;;;;;;;7.78;4.78;;;16.20;99.90;;;;;;5006861;28;20418;-59
2021/09/26 03:07:12;;;;;;;9.05;5.32;;;16.20;99.90;;;;;;5006706;28;20113;-54
2021/09/26 03:09:38;;;;;;;7.70;5.00;;;16.30;99.90;;;;;;5012116;28;20034;-60
2021/09/26 03:12:14;;;;;;;11.82;5.10;;;16.30;99.90;;;;;;5007856;28;20484;-57
2021/09/26 03:14:40;;;;;;;7.20;5.30;;;16.30;99.90;;;;;;5011712;28;20038;-59
2021/09/26 03:17:06;;;;;;;8.00;4.72;;;16.30;99.90;;;;;;5012721;28;20024;-58
2021/09/26 03:19:34;;;;;;;9.25;5.45;;;16.30;99.90;;;;;;5012231;28;20030;-59
2021/09/26 03:22:03;;;;;;;9.88;5.57;;;16.30;99.90;;;;;;5012013;28;20037;-58
2021/09/26 03:24:29;;;;;;;9.48;5.00;;;16.30;99.90;;;;;;5008174;28;20058;-58
2021/09/26 03:26:56;;;;;;;8.52;5.22;;;16.30;99.90;;;;;;5010507;28;20025;-59
2021/09/26 03:29:22;;;;;;;8.98;5.22;;;16.30;99.90;;;;;;5009183;28;20026;-59
2021/09/26 03:31:48;;;;;;;12.95;5.38;;;16.40;99.90;;;;;;5012050;28;20041;-61
2021/09/26 03:34:14;;;;;;;7.10;5.20;;;16.40;99.90;;;;;;5010558;28;20041;-55
2021/09/26 03:36:39;;;;;;;7.20;5.68;;;16.40;99.90;;;;;;5012774;28;20077;-59
2021/09/26 03:39:05;;;;;;;14.70;5.00;;;16.40;99.90;;;;;;5007003;28;20022;-59
2021/09/26 03:41:30;;;;;;;11.13;4.72;;;16.40;99.90;;;;;;5013564;28;20046;-58
2021/09/26 03:43:56;;;;;;;6.10;4.93;;;16.40;99.90;;;;;;5011838;28;20488;-58
2021/09/26 03:46:22;;;;;;;8.88;5.90;;;16.40;99.90;;;;;;5011755;28;20030;-54
2021/09/26 03:48:47;;;;;;;8.43;5.28;;;16.40;99.90;;;;;;5009984;28;20549;-59
2021/09/26 03:51:13;;;;;;;9.50;4.85;;;16.50;99.90;;;;;;5012783;28;20034;-61
2021/09/26 03:53:39;;;;;;;9.30;5.82;;;16.50;99.90;;;;;;5009466;28;20038;-57
2021/09/26 03:56:05;;;;;;;9.15;6.03;;;16.50;99.90;;;;;;5011232;28;20092;-57
2021/09/26 03:58:31;;;;;;;7.82;5.28;;;16.50;99.90;;;;;;5008504;28;20028;-58
2021/09/26 04:00:56;;;;;;;7.97;5.53;;;16.40;99.90;;;;;;5008388;28;20397;-58
2021/09/26 04:03:22;;;;;;;9.57;5.95;;;16.40;99.90;;;;;;4995252;28;20045;-57
2021/09/26 04:05:47;;;;;;;8.23;6.07;;;16.30;99.90;;;;;;5011369;28;20022;-57
2021/09/26 04:08:14;;;;;;;9.40;6.07;;;16.30;99.90;;;;;;5007826;28;20058;-59
2021/09/26 04:10:39;;;;;;;8.52;5.72;;;16.20;99.90;;;;;;5011140;28;20049;-57
2021/09/26 04:13:05;;;;;;;7.63;5.90;;;16.20;99.90;;;;;;5006491;28;20058;-57
2021/09/26 04:15:31;;;;;;;8.70;6.03;;;16.10;99.90;;;;;;5011286;28;20074;-58
2021/09/26 04:17:56;;;;;;;9.05;5.95;;;16.10;99.90;;;;;;5005085;28;20041;-56
2021/09/26 04:20:22;;;;;;;8.82;6.70;;;16.10;99.90;;;;;;5010567;28;20041;-58
2021/09/26 04:22:47;;;;;;;9.75;6.55;;;16.10;99.90;;;;;;5008232;28;20113;-61
2021/09/26 04:25:13;;;;;;;8.85;6.40;;;16.20;99.90;;;;;;5008585;28;20028;-57
2021/09/26 04:27:39;;;;;;;10.75;6.22;;;16.10;99.90;;;;;;5010696;28;20069;-55
2021/09/26 04:30:06;;;;;;;8.55;6.82;;;16.10;99.90;;;;;;5012989;28;20036;-59
2021/09/26 04:32:33;;;;;;;8.13;6.25;;;16.10;99.90;;;;;;5006597;28;20587;-57
2021/09/26 04:34:59;;;;;;;9.27;6.80;;;16.10;99.90;;;;;;5010612;28;20041;-55
2021/09/26 04:37:24;;;;;;;8.73;6.65;;;16.10;99.90;;;;;;5007410;28;20041;-58
2021/09/26 04:39:50;;;;;;;8.43;6.20;;;16.10;99.90;;;;;;5008062;28;20041;-60
2021/09/26 04:42:16;;;;;;;11.75;7.55;;;16.00;99.90;;;;;;5011302;28;20093;-57
2021/09/26 04:44:41;;;;;;;9.90;6.82;;;16.00;99.90;;;;;;5011004;28;20028;-60
2021/09/26 04:47:07;;;;;;;11.02;7.03;;;16.00;99.90;;;;;;5009822;28;20113;-57
2021/09/26 04:49:32;;;;;;;9.85;7.60;;;16.00;99.90;;;;;;5009030;28;20061;-61
2021/09/26 04:52:00;;;;;;;9.93;6.65;;;16.00;99.90;;;;;;5010273;28;20116;-54
2021/09/26 04:54:26;;;;;;;12.88;7.53;;;15.90;99.90;;;;;;5011146;28;20056;-58
2021/09/26 04:56:52;;;;;;;8.05;6.57;;;15.90;99.90;;;;;;5011313;28;20477;-57
2021/09/26 04:59:18;;;;;;;9.82;6.30;;;15.90;99.90;;;;;;5010786;28;20033;-58
2021/09/26 05:01:45;;;;;;;8.88;6.47;;;16.00;99.90;;;;;;4997014;28;20033;-59
2021/09/26 05:04:11;;;;;;;8.38;7.13;;;15.90;99.90;;;;;;5007251;28;20030;-55
2021/09/26 05:06:36;;;;;;;8.68;6.50;;;15.90;99.90;;;;;;5011112;28;20396;-59
2021/09/26 05:09:02;;;;;;;11.80;7.20;;;15.90;99.90;;;;;;5010124;28;20025;-53
2021/09/26 05:11:28;;;;;;;12.82;7.53;;;15.90;99.90;;;;;;5009223;28;20545;-58
2021/09/26 05:13:54;;;;;;;8.27;6.80;;;15.90;99.90;;;;;;5010660;28;20113;-57
2021/09/26 05:16:20;;;;;;;11.20;7.32;;;15.80;99.90;;;;;;5010624;28;20563;-60
2021/09/26 05:18:45;;;;;;;8.43;6.68;;;15.80;99.90;;;;;;5010423;28;20034;-57
2021/09/26 05:21:11;;;;;;;8.85;7.18;;;15.80;99.90;;;;;;5010108;28;20025;-58
2021/09/26 05:23:36;;;;;;;9.60;7.85;;;15.90;99.90;;;;;;5010593;28;20044;-56
2021/09/26 05:26:06;;;;;;;13.77;7.30;;;15.90;99.90;;;;;;5010505;28;20051;-58
2021/09/26 05:28:32;;;;;;;11.10;6.95;;;15.90;99.90;;;;;;5009412;28;20084;-57
2021/09/26 05:30:58;;;;;;;10.20;6.28;;;15.90;99.90;;;;;;5009065;28;20049;-58
2021/09/26 05:33:25;;;;;;;10.38;7.05;;;16.00;99.90;;;;;;5007151;28;20133;-59
2021/09/26 05:35:51;;;;;;;8.82;7.00;;;16.00;99.90;;;;;;5003734;28;20029;-60
2021/09/26 05:38:17;;;;;;;12.40;7.70;;;16.00;99.90;;;;;;5009608;28;20493;-58
2021/09/26 05:40:43;;;;;;;10.30;7.13;;;16.10;99.90;;;;;;5009357;28;20041;-60
2021/09/26 05:43:08;;;;;;;8.20;7.25;;;16.10;99.90;;;;;;5010023;28;20260;-57
2021/09/26 05:45:34;;;;;;;14.73;6.35;;;16.10;99.90;;;;;;5009884;28;20084;-53
2021/09/26 05:47:59;;;;;;;9.93;7.35;;;16.10;99.90;;;;;;5009621;28;20072;-54
2021/09/26 05:50:25;;;;;;;11.25;7.75;;;16.10;99.90;;;;;;5009981;28;20033;-60
2021/09/26 05:52:51;;;;;;;8.20;6.57;;;16.10;99.90;;;;;;5004410;28;20033;-57
2021/09/26 05:55:17;;;;;;;13.20;7.45;;;16.10;99.90;;;;;;5010012;28;20037;-58
2021/09/26 05:57:42;;;;;;;11.20;7.70;;;16.10;99.90;;;;;;5001614;28;20036;-59
2021/09/26 06:00:09;;;;;;;9.15;7.18;;;16.20;99.90;;;;;;5006947;28;20095;-59
2021/09/26 06:02:36;;;;;;;10.75;7.22;;;16.20;99.90;;;;;;4996933;28;20042;-58
2021/09/26 06:05:05;;;;;;;9.93;7.20;;;16.20;99.90;;;;;;5008874;28;20014;-60
2021/09/26 06:07:31;;;;;;;10.85;6.72;;;16.30;99.90;;;;;;5003723;28;20113;-59
2021/09/26 06:09:57;;;;;;;10.82;6.85;;;16.40;99.90;;;;;;5007944;28;20036;-59
2021/09/26 06:12:22;;;;;;;9.18;6.55;;;16.40;99.90;;;;;;5009172;28;20405;-57
2021/09/26 06:14:48;;;;;;;10.90;6.35;;;16.40;99.90;;;;;;5008048;28;20754;-54
2021/09/26 06:17:20;;;;;;;10.32;6.60;;;16.40;99.90;;;;;;5103262;27;20484;-61
2021/09/26 06:19:46;;;;;;;10.82;7.35;;;16.40;99.90;;;;;;5109125;28;20039;-53
2021/09/26 06:22:11;;;;;;;9.48;7.00;;;16.40;99.90;;;;;;5105060;28;20485;-58
2021/09/26 06:24:37;;;;;;;9.30;6.60;;;16.50;99.90;;;;;;5114434;28;20035;-60
2021/09/26 06:27:03;;;;;;;9.65;6.38;;;16.60;99.90;;;;;;5096998;28;20036;-59
2021/09/26 06:29:28;;;;;;;8.27;6.10;;;16.80;99.90;;;;;;5103462;28;20051;-59
2021/09/26 06:31:54;;;;;;;7.72;6.00;;;16.90;99.90;;;;;;5098171;28;20031;-56
2021/09/26 06:34:19;;;;;;;7.95;6.10;;;17.00;99.90;;;;;;5099075;28;20082;-60
2021/09/26 06:36:45;;;;;;;8.90;5.97;;;17.30;99.90;;;;;;5110677;28;20487;-60
2021/09/26 06:39:11;;;;;;;7.10;5.88;;;17.70;99.90;;;;;;5092773;28;20456;-60
2021/09/26 06:41:38;;;;;;;8.63;6.85;;;18.20;99.90;;;;;;5091734;28;20020;-60
2021/09/26 06:44:04;;;;;;;9.07;5.65;;;18.40;99.90;;;;;;5100167;28;20472;-60
2021/09/26 06:46:30;;;;;;;9.75;5.15;;;18.90;99.90;;;;;;5103867;28;20062;-57
2021/09/26 06:48:55;;;;;;;9.45;5.30;;;19.30;99.90;;;;;;5104543;28;20041;-59
2021/09/26 06:51:21;;;;;;;8.43;4.85;;;20.00;99.90;;;;;;5112010;28;20106;-58
2021/09/26 06:53:47;;;;;;;7.07;4.90;;;20.70;99.90;;;;;;5110565;28;20023;-61
2021/09/26 06:56:12;;;;;;;10.90;4.60;;;21.70;99.90;;;;;;5100791;28;20035;-57
2021/09/26 06:58:38;;;;;;;7.10;5.00;;;22.60;99.90;;;;;;5105273;28;20077;-51
2021/09/26 07:01:04;;;;;;;18.60;4.78;;;22.90;99.90;;;;;;5106046;28;20028;-59
2021/09/26 07:03:30;;;;;;;6.10;4.95;;;22.90;99.90;;;;;;5059114;28;20502;-58
2021/09/26 07:05:56;;;;;;;11.75;5.20;;;22.70;99.90;;;;;;5058179;28;20066;-60
2021/09/26 07:08:21;;;;;;;8.55;4.57;;;22.60;99.90;;;;;;5065872;28;20025;-58
2021/09/26 07:10:47;;;;;;;10.63;5.35;;;21.50;99.90;;;;;;5068112;28;20453;-57
2021/09/26 07:13:13;;;;;;;10.52;5.50;;;20.70;99.90;;;;;;5057461;28;20703;-56
2021/09/26 07:15:38;;;;;;;7.25;6.03;;;20.10;99.90;;;;;;5068869;28;20039;-57
2021/09/26 07:18:04;;;;;;;7.10;5.22;;;19.90;99.90;;;;;;5072812;28;20040;-58
2021/09/26 07:20:30;;;;;;;7.28;5.38;;;19.90;99.90;;;;;;5065422;28;20100;-58
2021/09/26 07:22:57;;;;;;;9.27;5.63;;;19.80;99.90;;;;;;5069264;28;20017;-61
2021/09/26 07:25:23;;;;;;;9.00;5.85;;;19.70;99.90;;;;;;5068197;28;20038;-58
2021/09/26 07:27:49;;;;;;;11.23;6.57;;;19.70;99.90;;;;;;5062831;28;20111;-61
2021/09/26 07:30:15;;;;;;;10.30;6.07;;;19.70;99.90;;;;;;5043599;28;20179;-58
2021/09/26 07:32:41;;;;;;;9.32;5.75;;;19.60;99.90;;;;;;5045203;28;20494;-61
2021/09/26 07:35:07;;;;;;;6.90;5.88;;;19.70;99.90;;;;;;5061270;28;20444;-60
2021/09/26 07:37:33;;;;;;;8.90;6.22;;;19.80;99.90;;;;;;5053710;28;20174;-61
2021/09/26 07:39:59;;;;;;;7.85;6.40;;;19.80;99.90;;;;;;5044272;28;20134;-59
2021/09/26 07:42:24;;;;;;;13.65;6.18;;;19.60;99.90;;;;;;5037413;28;20025;-60
2021/09/26 07:44:50;;;;;;;13.90;6.63;;;19.40;99.90;;;;;;5050457;28;20378;-59
2021/09/26 07:47:15;;;;;;;10.63;6.43;;;19.40;99.90;;;;;;5054676;28;20025;-61
2021/09/26 07:49:41;;;;;;;10.93;6.90;;;19.50;99.90;;;;;;5040813;28;20033;-58
2021/09/26 07:52:07;;;;;;;8.48;6.65;;;19.50;99.90;;;;;;5041331;28;20108;-61
2021/09/26 07:54:33;;;;;;;8.52;5.60;;;19.60;99.90;;;;;;5052233;28;20418;-58
2021/09/26 07:56:59;;;;;;;8.60;6.53;;;19.70;99.90;;;;;;5060541;28;20837;-59
2021/09/26 07:59:25;;;;;;;9.85;6.68;;;19.70;99.90;;;;;;5049039;28;20505;-57
2021/09/26 08:01:51;;;;;;;11.85;7.10;;;19.90;99.90;;;;;;5044323;28;20024;-59
2021/09/26 08:04:16;;;;;;;12.02;6.15;;;20.00;99.90;;;;;;5034232;28;20037;-59
2021/09/26 08:06:42;;;;;;;10.07;6.65;;;20.10;99.90;;;;;;5047864;28;20028;-59
2021/09/26 08:09:08;;;;;;;9.95;6.63;;;20.10;99.90;;;;;;5045181;28;20030;-60
2021/09/26 08:11:33;;;;;;;8.88;6.32;;;20.20;99.90;;;;;;5054677;28;20025;-59
2021/09/26 08:14:00;;;;;;;9.82;6.90;;;20.30;99.90;;;;;;5058670;28;20498;-55
2021/09/26 08:16:26;;;;;;;9.82;6.18;;;20.40;99.90;;;;;;5046327;28;20071;-59
2021/09/26 08:18:52;;;;;;;10.55;6.40;;;20.50;99.90;;;;;;5056967;28;20066;-57
2021/09/26 08:21:18;;;;;;;7.28;6.25;;;20.70;99.90;;;;;;5048009;28;20025;-60
2021/09/26 08:23:43;;;;;;;10.10;6.32;;;20.90;99.90;;;;;;5043027;28;20386;-59
2021/09/26 08:26:09;;;;;;;9.98;6.20;;;21.00;99.90;;;;;;5044317;28;20025;-59
2021/09/26 08:28:34;;;;;;;8.75;5.70;;;21.10;99.90;;;;;;5056383;28;20586;-57
2021/09/26 08:31:00;;;;;;;8.48;5.40;;;21.30;99.90;;;;;;5049555;28;20029;-59
2021/09/26 08:33:26;;;;;;;15.25;5.97;;;21.50;99.90;;;;;;5050759;28;20025;-60
2021/09/26 08:35:51;;;;;;;7.60;5.38;;;21.80;99.90;;;;;;5056211;28;20489;-60
2021/09/26 08:38:17;;;;;;;10.55;5.80;;;22.20;99.90;;;;;;5050570;28;20029;-58
2021/09/26 08:40:43;;;;;;;13.48;5.05;;;22.50;99.90;;;;;;5054821;28;20036;-58
2021/09/26 08:43:09;;;;;;;8.20;5.47;;;22.90;99.90;;;;;;5045382;28;20028;-59
2021/09/26 08:45:38;;;;;;;9.30;5.45;;;23.30;99.90;;;;;;5044731;28;20498;-59
2021/09/26 08:48:05;;;;;;;5.82;4.65;;;23.20;99.90;;;;;;5044027;28;20078;-59
2021/09/26 08:50:31;;;;;;;7.72;4.30;;;23.60;99.90;;;;;;5060371;28;20060;-57
2021/09/26 08:52:57;;;;;;;5.88;4.72;;;23.60;99.90;;;;;;5051836;28;20045;-59
2021/09/26 08:55:23;;;;;;;7.20;4.80;;;24.00;99.90;;;;;;5047729;28;20084;-59
2021/09/26 08:57:49;;;;;;;8.27;5.30;;;24.50;99.90;;;;;;5048519;28;20479;-58
2021/09/26 09:00:16;;;;;;;6.50;4.93;;;24.50;99.80;;;;;;5042125;28;20159;-58
2021/09/26 09:02:45;;;;;;;8.23;4.63;;;24.80;99.90;;;;;;5024130;28;20489;-59
2021/09/26 09:05:26;;;;;;;7.35;4.38;;;25.20;99.30;;;;;;5043247;28;20061;-60
2021/09/26 09:08:17;;;;;;;8.05;4.75;;;25.30;98.60;;;;;;5051755;28;20039;-56
2021/09/26 09:10:49;;;;;;;4.90;4.30;;;25.70;99.20;;;;;;5055638;28;20085;-59
2021/09/26 09:13:36;;;;;;;6.85;4.85;;;25.90;98.10;;;;;;5056481;28;20040;-60
2021/09/26 09:16:14;;;;;;;4.97;4.40;;;25.70;97.50;;;;;;5053107;28;20036;-60
2021/09/26 09:18:50;;;;;;;7.45;4.25;;;25.50;98.10;;;;;;5058845;28;20033;-59
2021/09/26 09:21:27;;;;;;;10.63;4.70;;;26.00;97.50;;;;;;5058623;28;20066;-59
2021/09/26 09:24:13;;;;;;;7.72;4.20;;;25.70;97.50;;;;;;5045410;28;20039;-58
2021/09/26 09:26:39;;;;;;;5.88;4.32;;;25.70;98.00;;;;;;5045719;28;20040;-59
2021/09/26 09:29:06;;;;;;;7.57;4.45;;;25.80;97.40;;;;;;5047098;28;20028;-60
2021/09/26 09:31:33;;;;;;;6.63;4.07;;;26.20;96.60;;;;;;5048728;28;20040;-58
2021/09/26 09:34:04;;;;;;;7.10;4.28;;;26.30;97.10;;;;;;5055658;28;20112;-60
2021/09/26 09:36:31;;;;;;;6.65;4.38;;;25.80;96.50;;;;;;5045989;28;20040;-55
2021/09/26 09:39:06;;;;;;;8.45;4.07;;;26.30;96.20;;;;;;5052104;28;20074;-58
2021/09/26 09:41:37;;;;;;;4.93;4.00;;;25.90;96.70;;;;;;5061906;28;20588;-57
2021/09/26 09:44:05;;;;;;;5.30;3.80;;;26.20;97.50;;;;;;5052467;28;20036;-58
2021/09/26 09:46:37;;;;;;;9.68;3.80;;;26.60;96.50;;;;;;5050845;28;20037;-58
2021/09/26 09:49:17;;;;;;;5.90;4.10;;;26.60;96.10;;;;;;5046228;28;20512;-60
2021/09/26 09:52:01;;;;;;;7.90;3.85;;;26.90;96.20;;;;;;5051860;28;20749;-58
2021/09/26 09:54:35;;;;;;;7.03;3.92;;;26.90;95.50;;;;;;5046220;28;20103;-59
2021/09/26 09:57:17;;;;;;;6.25;4.18;;;26.70;96.00;;;;;;5054532;28;20060;-60
2021/09/26 09:59:46;;;;;;;5.93;3.65;;;27.00;95.40;;;;;;5051791;28;20021;-57
2021/09/26 10:02:13;;;;;;;7.57;4.00;;;26.90;95.10;;;;;;5055000;28;20083;-56
2021/09/26 10:04:44;;;;;;;6.75;4.47;;;26.90;95.20;;;;;;5031540;28;20140;-53
2021/09/26 10:07:21;;;;;;;5.50;3.92;;;26.50;95.80;;;;;;5042073;28;20043;-60
2021/09/26 10:09:49;;;;;;;8.98;4.32;;;26.10;96.60;;;;;;5044421;28;20037;-60
2021/09/26 10:12:19;;;;;;;8.77;5.00;;;26.10;96.60;;;;;;5053382;28;20024;-59
2021/09/26 10:14:45;;;;;;;5.05;3.58;;;26.20;96.10;;;;;;5055083;28;20056;-60
2021/09/26 10:17:10;;;;;;;6.57;4.10;;;26.00;96.90;;;;;;5063436;28;20036;-56
2021/09/26 10:19:36;;;;;;;8.60;3.90;;;26.10;96.60;;;;;;5060407;28;20021;-56
2021/09/26 10:22:04;;;;;;;8.38;3.95;;;26.30;97.40;;;;;;5048002;28;20024;-58
2021/09/26 10:24:32;;;;;;;5.22;3.45;;;26.50;96.50;;;;;;5057426;28;20028;-57
2021/09/26 10:27:01;;;;;;;6.45;4.63;;;26.20;96.00;;;;;;5051600;28;20029;-57
2021/09/26 10:29:31;;;;;;;6.43;3.95;;;26.20;96.80;;;;;;5060123;28;20036;-58
2021/09/26 10:32:00;;;;;;;6.00;3.97;;;25.70;96.50;;;;;;5048822;28;20033;-59
2021/09/26 10:34:26;;;;;;;6.88;3.85;;;25.30;97.50;;;;;;5047195;28;20029;-60
2021/09/26 10:36:52;;;;;;;6.60;4.00;;;25.40;97.40;;;;;;5052376;28;20125;-59
2021/09/26 10:39:19;;;;;;;9.07;4.57;;;25.60;97.70;;;;;;5048631;28;20116;-58
2021/09/26 10:42:15;;;;;;;7.82;4.07;;;25.60;97.50;;;;;;5054120;28;20028;-58
2021/09/26 10:44:48;;;;;;;6.05;4.32;;;25.80;97.60;;;;;;5054701;28;20068;-58
2021/09/26 10:47:26;;;;;;;5.50;4.40;;;25.40;97.10;;;;;;5055459;28;20029;-58
2021/09/26 10:50:12;;;;;;;5.60;3.78;;;25.30;98.10;;;;;;5052820;28;20037;-59
2021/09/26 10:52:41;;;;;;;8.18;4.93;;;25.40;97.90;;;;;;5053287;28;20021;-58
2021/09/26 10:55:16;;;;;;;7.63;3.85;;;25.50;97.60;;;;;;5048362;28;20021;-57
2021/09/26 10:57:49;;;;;;;7.25;4.22;;;25.30;97.60;;;;;;5053881;28;20021;-54
2021/09/26 11:00:37;;;;;;;7.65;5.13;;;25.00;97.70;;;;;;5055812;28;20027;-59
2021/09/26 11:03:06;;;;;;;6.93;3.65;;;24.50;98.40;;;;;;5038727;28;20052;-59
2021/09/26 11:05:38;;;;;;;9.75;3.67;;;24.50;99.20;;;;;;5060100;28;20489;-56
2021/09/26 11:08:25;;;;;;;7.80;3.47;;;24.30;99.00;;;;;;5050259;28;20087;-59
2021/09/26 11:10:56;;;;;;;7.03;3.58;;;24.00;99.00;;;;;;5042432;28;20414;-59
2021/09/26 11:13:24;;;;;;;6.30;3.85;;;23.90;99.40;;;;;;5058463;28;20080;-58
2021/09/26 11:16:09;;;;;;;6.68;3.78;;;23.90;99.70;;;;;;5063750;28;20135;-59
2021/09/26 11:18:41;;;;;;;5.13;3.63;;;23.90;99.90;;;;;;5063947;28;20512;-59
2021/09/26 11:21:07;;;;;;;5.85;3.92;;;24.10;99.90;;;;;;5046492;28;20025;-59
2021/09/26 11:23:34;;;;;;;9.75;3.72;;;24.30;99.80;;;;;;5047131;28;20568;-59
2021/09/26 11:26:04;;;;;;;8.18;4.30;;;24.40;99.90;;;;;;5047644;28;20108;-60
2021/09/26 11:28:38;;;;;;;7.20;3.63;;;24.50;99.40;;;;;;5047051;28;20052;-59
2021/09/26 11:31:23;;;;;;;;;;;24.70;99.00;;;;;;5040462;28;20040;-59
2021/09/26 11:33:58;;;;;;;6.85;3.95;;;24.80;99.10;;;;;;5044174;28;19951;-58
2021/09/26 11:36:26;;;;;;;9.48;4.10;;;24.80;98.60;;;;;;5047624;28;20033;-58
2021/09/26 11:38:52;;;;;;;7.47;4.07;;;24.50;98.90;;;;;;5046270;28;20071;-60
2021/09/26 11:41:37;;;;;;;4.78;4.07;;;24.60;99.00;;;;;;5052744;28;20040;-60
2021/09/26 11:44:07;;;;;;;6.03;3.47;;;24.90;99.10;;;;;;5060354;28;20028;-59
2021/09/26 11:46:34;;;;;;;12.93;4.13;;;25.00;98.40;;;;;;5052313;28;20042;-60
2021/09/26 11:49:06;;;;;;;8.68;3.53;;;25.20;98.30;;;;;;5056341;28;20028;-58
2021/09/26 11:51:34;;;;;;;8.93;4.10;;;25.20;98.10;;;;;;5055027;28;20491;-59
2021/09/26 11:54:00;;;;;;;7.88;3.92;;;25.10;98.30;;;;;;5056416;28;20028;-59
2021/09/26 11:56:33;;;;;;;4.57;3.25;;;25.10;98.20;;;;;;5051452;28;20033;-60
2021/09/26 11:59:05;;;;;;;6.57;3.78;;;24.90;98.60;;;;;;5050702;28;20024;-59
2021/09/26 12:01:42;;;;;;;5.97;3.63;;;24.40;98.50;;;;;;5056385;28;20381;-58
2021/09/26 12:04:19;;;;;;;5.25;3.47;;;24.30;99.20;;;;;;5035576;28;20037;-59
2021/09/26 12:06:59;;;;;;;4.90;3.78;;;24.10;99.70;;;;;;5054001;28;20029;-58
2021/09/26 12:09:42;;;;;;;5.30;3.65;;;23.90;99.60;;;;;;5053274;28;20025;-60
2021/09/26 12:12:10;;;;;;;8.27;4.70;;;23.70;99.90;;;;;;5043674;28;20036;-57
2021/09/26 12:14:37;;;;;;;12.57;4.55;;;23.70;99.80;;;;;;5054360;28;20040;-60
2021/09/26 12:17:06;;;;;;;11.45;4.00;;;23.70;99.90;;;;;;5050664;28;20029;-58
2021/09/26 12:19:33;;;;;;;5.95;3.63;;;23.50;99.90;;;;;;5059469;28;20116;-60
2021/09/26 12:22:00;;;;;;;5.90;4.53;;;23.40;99.90;;;;;;5057777;28;20490;-61
2021/09/26 12:24:33;;;;;;;5.07;3.55;;;23.30;99.90;;;;;;5057206;28;20023;-51
2021/09/26 12:26:58;;;;;;;12.93;4.97;;;23.20;99.90;;;;;;5052476;28;20033;-58
2021/09/26 12:29:27;;;;;;;7.55;3.85;;;23.20;99.90;;;;;;5061078;28;20099;-60
2021/09/26 12:31:57;;;;;;;10.25;3.40;;;23.20;99.90;;;;;;5062292;28;20051;-59
2021/09/26 12:34:32;;;;;;;6.75;4.50;;;23.10;99.90;;;;;;5050640;28;20029;-60
2021/09/26 12:36:59;;;;;;;6.57;3.83;;;23.10;99.90;;;;;;5038570;28;20021;-56
2021/09/26 12:39:37;;;;;;;7.07;3.65;;;23.10;99.90;;;;;;5044390;28;20025;-58
2021/09/26 12:42:03;;;;;;;9.38;3.40;;;23.10;99.90;;;;;;5038691;28;20018;-58
2021/09/26 12:44:35;;;;;;;5.28;3.22;;;23.10;99.90;;;;;;5042828;28;20036;-59
2021/09/26 12:47:05;;;;;;;8.50;3.60;;;23.10;99.90;;;;;;5037691;28;20433;-55
2021/09/26 12:49:34;;;;;;;7.82;4.15;;;23.10;99.90;;;;;;5034903;28;20032;-59
2021/09/26 12:52:18;;;;;;;7.93;3.97;;;23.10;99.90;;;;;;5037611;28;20192;-54